createdAt,value
2018-01-30T00:01:07.276Z,91.50
2018-01-30T00:03:35.519Z,91.80
2018-01-30T00:06:03.030Z,91.70
2018-01-30T00:08:30.504Z,91.60
2018-01-30T00:10:58.021Z,91.60
2018-01-30T00:13:25.497Z,91.70
2018-01-30T00:15:52.984Z,91.80
2018-01-30T00:18:20.457Z,91.90
2018-01-30T00:20:47.954Z,91.80
2018-01-30T00:23:16.187Z,91.70
2018-01-30T00:25:43.667Z,91.70
2018-01-30T00:28:11.226Z,91.70
2018-01-30T00:30:39.480Z,91.50
2018-01-30T00:33:06.998Z,91.60
2018-01-30T00:35:34.455Z,91.50
2018-01-30T00:38:01.935Z,91.60
2018-01-30T00:40:29.417Z,91.90
2018-01-30T00:42:56.898Z,92.00
2018-01-30T00:45:25.126Z,92.00
2018-01-30T00:47:52.603Z,92.10
2018-01-30T00:50:21.927Z,92.10
2018-01-30T00:52:50.150Z,91.70
2018-01-30T00:55:17.626Z,91.70
2018-01-30T00:57:45.134Z,91.70
2018-01-30T01:00:12.600Z,91.40
2018-01-30T01:02:40.063Z,91.40
2018-01-30T01:05:07.605Z,91.30
2018-01-30T01:07:35.082Z,91.20
2018-01-30T01:10:03.730Z,91.30
2018-01-30T01:12:31.209Z,91.60
2018-01-30T01:14:58.671Z,91.70
2018-01-30T01:17:26.162Z,91.70
2018-01-30T01:19:53.637Z,91.50
2018-01-30T01:22:21.910Z,91.50
2018-01-30T01:24:50.138Z,91.60
2018-01-30T01:27:17.626Z,91.60
2018-01-30T01:29:45.126Z,91.60
2018-01-30T01:32:12.618Z,92.00
2018-01-30T01:34:40.088Z,91.90
2018-01-30T01:37:07.574Z,91.70
2018-01-30T01:39:35.815Z,91.50
2018-01-30T01:42:03.327Z,91.50
2018-01-30T01:44:30.786Z,92.40
2018-01-30T01:46:58.257Z,91.60
2018-01-30T01:49:31.766Z,91.50
2018-01-30T01:51:59.221Z,91.60
2018-01-30T01:54:26.710Z,91.60
2018-01-30T01:56:54.959Z,91.60
2018-01-30T01:59:22.421Z,91.60
2018-01-30T02:01:49.893Z,91.70
2018-01-30T02:04:17.374Z,91.40
2018-01-30T02:06:44.839Z,92.00
2018-01-30T02:09:12.331Z,92.30
2018-01-30T02:11:39.828Z,92.50
2018-01-30T02:14:08.068Z,92.20
2018-01-30T02:16:35.532Z,92.20
2018-01-30T02:19:03.023Z,92.30
2018-01-30T02:21:30.499Z,92.20
2018-01-30T02:23:58.114Z,92.40
2018-01-30T02:26:26.406Z,93.40
2018-01-30T02:28:54.658Z,93.60
2018-01-30T02:31:22.161Z,93.60
2018-01-30T02:33:49.622Z,93.60
2018-01-30T02:36:17.097Z,93.50
2018-01-30T02:38:44.582Z,93.20
2018-01-30T02:41:12.051Z,93.00
2018-01-30T02:43:40.314Z,92.40
2018-01-30T02:46:07.797Z,92.40
2018-01-30T02:48:35.267Z,92.30
2018-01-30T02:51:02.730Z,92.30
2018-01-30T02:53:30.219Z,92.60
2018-01-30T02:55:57.717Z,92.70
2018-01-30T02:58:25.227Z,92.80
2018-01-30T03:00:52.697Z,92.90
2018-01-30T03:03:20.950Z,92.50
2018-01-30T03:05:48.422Z,92.50
2018-01-30T03:08:15.906Z,92.40
2018-01-30T03:10:44.134Z,92.00
2018-01-30T03:13:11.618Z,92.00
2018-01-30T03:15:39.097Z,92.00
2018-01-30T03:18:07.362Z,91.80
2018-01-30T03:20:35.605Z,91.80
2018-01-30T03:23:03.099Z,91.80
2018-01-30T03:25:31.340Z,91.70
2018-01-30T03:27:58.827Z,91.70
2018-01-30T03:30:27.046Z,91.70
2018-01-30T03:32:54.527Z,91.70
2018-01-30T03:35:22.011Z,91.90
2018-01-30T03:37:50.241Z,92.30
2018-01-30T03:40:17.757Z,92.30
2018-01-30T03:42:45.240Z,92.70
2018-01-30T03:45:12.712Z,92.30
2018-01-30T03:47:40.185Z,92.30
2018-01-30T03:50:07.671Z,92.30
2018-01-30T03:52:35.897Z,92.10
2018-01-30T03:55:03.412Z,92.10
2018-01-30T03:57:30.888Z,92.00
2018-01-30T03:59:58.366Z,92.20
2018-01-30T04:02:25.840Z,92.40
2018-01-30T04:04:53.320Z,92.60
2018-01-30T04:07:20.835Z,92.70
2018-01-30T04:09:48.307Z,92.80
2018-01-30T04:12:15.803Z,92.80
2018-01-30T04:14:44.030Z,92.80
2018-01-30T04:17:11.498Z,92.70
2018-01-30T04:19:38.986Z,92.80
2018-01-30T04:22:06.485Z,92.60
2018-01-30T04:24:33.972Z,92.70
2018-01-30T04:27:01.461Z,92.60
2018-01-30T04:29:28.932Z,92.60
2018-01-30T04:31:56.450Z,93.00
2018-01-30T04:34:24.707Z,93.20
2018-01-30T04:36:52.209Z,93.20
2018-01-30T04:39:19.675Z,93.10
2018-01-30T04:41:47.175Z,93.10
2018-01-30T04:44:14.665Z,93.20
2018-01-30T04:46:42.197Z,93.10
2018-01-30T04:49:09.687Z,93.20
2018-01-30T04:51:37.172Z,93.20
2018-01-30T04:54:04.662Z,93.30
2018-01-30T04:56:32.145Z,93.30
2018-01-30T04:59:00.385Z,93.40
2018-01-30T05:01:27.996Z,93.30
2018-01-30T05:03:55.481Z,93.40
2018-01-30T05:06:22.981Z,93.10
2018-01-30T05:08:51.216Z,92.80
2018-01-30T05:11:18.699Z,92.70
2018-01-30T05:13:46.188Z,92.70
2018-01-30T05:16:13.651Z,92.90
2018-01-30T05:18:41.143Z,92.20
2018-01-30T05:21:08.626Z,92.50
2018-01-30T05:23:36.857Z,93.10
2018-01-30T05:26:04.356Z,93.10
2018-01-30T05:28:31.854Z,93.20
2018-01-30T05:30:59.554Z,93.20
2018-01-30T05:33:27.077Z,93.20
2018-01-30T05:35:54.550Z,93.30
2018-01-30T05:38:22.029Z,93.30
2018-01-30T05:40:50.430Z,93.40
2018-01-30T05:43:18.720Z,93.40
2018-01-30T05:45:46.998Z,93.60
2018-01-30T05:48:14.460Z,93.60
2018-01-30T05:50:41.947Z,93.60
2018-01-30T05:53:09.438Z,93.30
2018-01-30T05:55:36.910Z,93.10
2018-01-30T05:58:05.189Z,93.30
2018-01-30T06:00:32.649Z,93.20
2018-01-30T06:03:00.140Z,93.10
2018-01-30T06:05:27.614Z,93.40
2018-01-30T06:07:55.113Z,93.20
2018-01-30T06:10:22.614Z,93.00
2018-01-30T06:12:50.087Z,93.00
2018-01-30T06:15:17.620Z,92.90
2018-01-30T06:17:45.154Z,93.00
2018-01-30T06:20:12.638Z,93.00
2018-01-30T06:22:40.390Z,93.10
2018-01-30T06:25:07.933Z,93.10
2018-01-30T06:27:35.400Z,93.30
2018-01-30T06:30:02.902Z,93.40
2018-01-30T06:32:30.416Z,93.60
2018-01-30T06:34:58.012Z,93.90
2018-01-30T06:37:26.642Z,93.70
2018-01-30T06:39:54.117Z,93.70
2018-01-30T06:42:21.612Z,93.90
2018-01-30T06:44:49.097Z,94.20
2018-01-30T06:47:16.587Z,94.10
2018-01-30T06:49:44.879Z,94.20
2018-01-30T06:52:12.394Z,93.80
2018-01-30T06:54:39.877Z,93.90
2018-01-30T06:57:07.379Z,93.70
2018-01-30T06:59:34.850Z,93.80
2018-01-30T07:02:02.334Z,93.70
2018-01-30T07:04:29.838Z,93.80
2018-01-30T07:06:57.356Z,93.70
2018-01-30T07:09:24.847Z,93.60
2018-01-30T07:11:52.341Z,93.60
2018-01-30T07:14:19.841Z,93.90
2018-01-30T07:16:47.315Z,93.80
2018-01-30T07:19:14.819Z,93.70
2018-01-30T07:21:42.299Z,93.70
2018-01-30T07:24:09.770Z,93.90
2018-01-30T07:26:37.312Z,93.70
2018-01-30T07:29:04.810Z,93.70
2018-01-30T07:31:32.473Z,93.80
2018-01-30T07:34:00.709Z,94.10
2018-01-30T07:36:28.199Z,93.80
2018-01-30T07:38:56.456Z,93.50
2018-01-30T07:41:23.944Z,93.50
2018-01-30T07:43:51.402Z,93.50
2018-01-30T07:46:18.914Z,93.40
2018-01-30T07:48:46.436Z,93.50
2018-01-30T07:51:13.990Z,93.60
2018-01-30T07:53:41.479Z,93.50
2018-01-30T07:56:08.982Z,93.60
2018-01-30T07:58:37.258Z,93.90
2018-01-30T08:01:05.506Z,93.90
2018-01-30T08:03:32.988Z,93.90
2018-01-30T08:06:01.241Z,93.90
2018-01-30T08:08:28.695Z,93.80
2018-01-30T08:10:56.184Z,93.80
2018-01-30T08:13:23.667Z,93.60
2018-01-30T08:15:51.141Z,93.80
2018-01-30T08:18:18.623Z,93.80
2018-01-30T08:20:46.117Z,93.70
2018-01-30T08:23:13.589Z,93.70
2018-01-30T08:25:41.058Z,93.40
2018-01-30T08:28:08.541Z,93.10
2018-01-30T08:30:37.032Z,93.00
2018-01-30T08:33:05.344Z,93.40
2018-01-30T08:35:32.856Z,93.40
2018-01-30T08:38:00.419Z,93.20
2018-01-30T08:40:27.897Z,93.20
2018-01-30T08:42:55.372Z,92.80
2018-01-30T08:45:22.851Z,92.60
2018-01-30T08:47:50.334Z,92.60
2018-01-30T08:50:17.816Z,92.80
2018-01-30T08:52:45.443Z,92.90
2018-01-30T08:55:12.892Z,92.60
2018-01-30T08:57:40.359Z,92.70
2018-01-30T09:00:07.850Z,92.00
2018-01-30T09:02:35.329Z,92.00
2018-01-30T09:05:02.825Z,91.50
2018-01-30T09:07:30.294Z,91.10
2018-01-30T09:09:57.777Z,91.40
2018-01-30T09:12:25.305Z,91.70
2018-01-30T09:14:52.972Z,91.70
2018-01-30T09:17:20.458Z,91.80
2018-01-30T09:19:47.922Z,90.80
2018-01-30T09:22:15.406Z,91.70
2018-01-30T09:24:42.878Z,91.60
2018-01-30T09:27:10.371Z,90.90
2018-01-30T09:29:37.838Z,91.70
2018-01-30T09:32:05.329Z,90.50
2018-01-30T09:34:32.791Z,89.00
2018-01-30T09:37:00.307Z,89.60
2018-01-30T09:39:27.794Z,89.50
2018-01-30T09:41:55.282Z,88.80
2018-01-30T09:44:22.751Z,87.00
2018-01-30T09:46:51.047Z,88.10
2018-01-30T09:49:18.572Z,88.10
2018-01-30T09:51:46.015Z,86.90
2018-01-30T09:54:13.499Z,88.10
2018-01-30T09:56:41.735Z,87.30
2018-01-30T09:59:09.213Z,87.30
2018-01-30T10:01:37.494Z,88.00
2018-01-30T10:04:05.752Z,87.00
2018-01-30T10:06:34.814Z,88.00
2018-01-30T10:09:02.318Z,87.90
2018-01-30T10:11:29.805Z,89.30
2018-01-30T10:13:57.455Z,88.30
2018-01-30T10:16:24.898Z,87.70
2018-01-30T10:18:53.145Z,86.10
2018-01-30T10:21:20.629Z,86.20
2018-01-30T10:23:48.906Z,86.30
2018-01-30T10:26:17.173Z,84.90
2018-01-30T10:28:45.410Z,88.10
2018-01-30T10:31:13.344Z,88.00
2018-01-30T10:33:41.108Z,82.10
2018-01-30T10:36:08.939Z,77.90
2018-01-30T10:38:37.723Z,73.40
2018-01-30T10:41:05.325Z,73.40
2018-01-30T10:43:32.921Z,75.40
2018-01-30T10:46:00.411Z,73.50
2018-01-30T10:48:28.671Z,72.70
2018-01-30T10:50:56.166Z,73.40
2018-01-30T10:53:23.865Z,73.00
2018-01-30T10:55:51.433Z,71.80
2018-01-30T10:58:18.951Z,69.80
2018-01-30T11:00:46.607Z,66.60
2018-01-30T11:03:14.238Z,66.40
2018-01-30T11:05:42.483Z,65.60
2018-01-30T11:08:10.729Z,66.10
2018-01-30T11:10:38.354Z,66.00
2018-01-30T11:13:05.846Z,65.50
2018-01-30T11:15:33.438Z,65.10
2018-01-30T11:18:00.934Z,65.40
2018-01-30T11:20:28.401Z,67.40
2018-01-30T11:22:55.879Z,66.50
2018-01-30T11:25:23.390Z,66.20
2018-01-30T11:27:50.884Z,65.70
2018-01-30T11:30:18.395Z,65.10
2018-01-30T11:32:46.743Z,64.60
2018-01-30T11:35:14.269Z,64.60
2018-01-30T11:37:41.774Z,65.50
2018-01-30T11:40:10.095Z,65.00
2018-01-30T11:42:37.598Z,65.00
2018-01-30T11:45:05.084Z,64.70
2018-01-30T11:47:32.562Z,64.60
2018-01-30T11:50:00.198Z,66.20
2018-01-30T11:52:27.675Z,64.70
2018-01-30T11:54:55.146Z,65.00
2018-01-30T11:57:22.616Z,64.10
2018-01-30T11:59:50.115Z,63.70
2018-01-30T12:02:17.648Z,64.00
2018-01-30T12:04:45.124Z,63.80
2018-01-30T12:07:13.380Z,63.60
2018-01-30T12:09:41.615Z,64.80
2018-01-30T12:12:09.110Z,64.80
2018-01-30T12:14:36.590Z,64.10
2018-01-30T12:17:04.067Z,63.90
2018-01-30T12:19:31.526Z,62.50
2018-01-30T12:21:59.001Z,63.50
2018-01-30T12:24:26.466Z,63.70
2018-01-30T12:26:53.943Z,63.70
2018-01-30T12:29:22.230Z,63.30
2018-01-30T12:31:50.525Z,63.30
2018-01-30T12:34:18.766Z,62.80
2018-01-30T12:36:47.036Z,63.70
2018-01-30T12:39:14.516Z,63.60
2018-01-30T12:41:42.759Z,60.80
2018-01-30T12:44:10.259Z,60.80
2018-01-30T12:46:37.788Z,60.40
2018-01-30T12:49:05.441Z,59.20
2018-01-30T12:51:32.912Z,59.40
2018-01-30T12:54:01.149Z,59.10
2018-01-30T12:56:28.650Z,59.10
2018-01-30T12:58:56.297Z,59.60
2018-01-30T13:01:23.771Z,59.30
2018-01-30T13:03:51.230Z,59.60
2018-01-30T13:06:18.765Z,59.50
2018-01-30T13:08:46.308Z,59.40
2018-01-30T13:11:13.855Z,59.80
2018-01-30T13:13:41.338Z,59.80
2018-01-30T13:16:09.583Z,60.30
2018-01-30T13:18:37.075Z,59.70
2018-01-30T13:21:05.323Z,59.60
2018-01-30T13:23:32.807Z,59.60
2018-01-30T13:26:01.051Z,59.80
2018-01-30T13:28:28.632Z,59.70
2018-01-30T13:30:56.878Z,60.90
2018-01-30T13:33:24.370Z,60.90
2018-01-30T13:35:52.629Z,61.30
2018-01-30T13:38:20.125Z,61.30
2018-01-30T13:40:47.587Z,61.70
2018-01-30T13:43:15.074Z,61.60
2018-01-30T13:45:42.596Z,60.30
2018-01-30T13:48:13.117Z,60.50
2018-01-30T13:50:40.595Z,60.80
2018-01-30T13:53:08.119Z,61.20
2018-01-30T13:55:36.363Z,61.10
2018-01-30T13:58:03.932Z,61.00
2018-01-30T14:00:32.189Z,60.20
2018-01-30T14:02:59.688Z,60.90
2018-01-30T14:05:27.143Z,60.40
2018-01-30T14:07:54.650Z,61.10
2018-01-30T14:10:22.135Z,61.40
2018-01-30T14:12:49.606Z,61.60
2018-01-30T14:15:17.094Z,61.90
2018-01-30T14:17:44.574Z,61.50
2018-01-30T14:20:12.077Z,61.70
2018-01-30T14:22:40.324Z,63.20
2018-01-30T14:25:07.845Z,62.40
2018-01-30T14:27:35.314Z,62.70
2018-01-30T14:30:02.828Z,62.70
2018-01-30T14:32:30.287Z,63.40
2018-01-30T14:34:57.903Z,63.50
2018-01-30T14:37:25.388Z,63.50
2018-01-30T14:39:54.954Z,62.00
2018-01-30T14:42:22.454Z,61.90
2018-01-30T14:44:49.945Z,61.60
2018-01-30T14:47:17.471Z,61.40
2018-01-30T14:49:44.941Z,62.20
2018-01-30T14:52:12.399Z,63.70
2018-01-30T14:54:39.867Z,63.60
2018-01-30T14:57:07.348Z,64.20
2018-01-30T14:59:34.832Z,63.90
2018-01-30T15:02:03.094Z,64.40
2018-01-30T15:04:30.556Z,64.40
2018-01-30T15:06:58.835Z,64.60
2018-01-30T15:09:26.286Z,64.60
2018-01-30T15:11:54.531Z,64.90
2018-01-30T15:14:22.038Z,64.90
2018-01-30T15:16:49.520Z,65.10
2018-01-30T15:19:16.974Z,65.50
2018-01-30T15:21:44.446Z,65.70
2018-01-30T15:24:11.930Z,65.80
2018-01-30T15:26:39.430Z,65.90
2018-01-30T15:29:06.951Z,66.50
2018-01-30T15:31:35.211Z,66.70
2018-01-30T15:34:02.690Z,65.90
2018-01-30T15:36:30.909Z,66.30
2018-01-30T15:38:58.406Z,66.10
2018-01-30T15:41:25.916Z,66.40
2018-01-30T15:43:53.424Z,66.40
2018-01-30T15:46:21.022Z,66.70
2018-01-30T15:48:48.508Z,67.10
2018-01-30T15:51:15.997Z,67.20
2018-01-30T15:53:44.263Z,68.70
2018-01-30T15:56:11.745Z,68.00
2018-01-30T15:58:39.219Z,69.00
2018-01-30T16:01:06.708Z,69.20
2018-01-30T16:03:34.182Z,69.70
2018-01-30T16:06:01.701Z,70.30
2018-01-30T16:08:29.247Z,70.80
2018-01-30T16:10:57.408Z,71.10
2018-01-30T16:13:24.919Z,71.60
2018-01-30T16:15:52.380Z,72.60
2018-01-30T16:18:19.890Z,72.80
2018-01-30T16:20:47.930Z,73.40
2018-01-30T16:23:16.193Z,74.50
2018-01-30T16:25:43.683Z,74.50
2018-01-30T16:28:11.251Z,75.70
2018-01-30T16:30:38.703Z,75.80
2018-01-30T16:33:08.143Z,76.30
2018-01-30T16:35:35.940Z,77.20
2018-01-30T16:38:04.246Z,78.50
2018-01-30T16:40:31.801Z,78.50
2018-01-30T16:42:59.267Z,78.90
2018-01-30T16:45:26.728Z,79.20
2018-01-30T16:47:54.242Z,79.80
2018-01-30T16:50:23.648Z,80.70
2018-01-30T16:52:51.884Z,80.90
2018-01-30T16:55:19.416Z,80.80
2018-01-30T16:57:46.891Z,81.50
2018-01-30T17:00:14.414Z,81.60
2018-01-30T17:02:41.876Z,81.40
2018-01-30T17:05:09.541Z,81.50
2018-01-30T17:07:37.194Z,81.10
2018-01-30T17:10:04.684Z,81.30
2018-01-30T17:12:32.141Z,81.40
2018-01-30T17:14:59.611Z,82.00
2018-01-30T17:17:27.173Z,81.90
2018-01-30T17:19:54.652Z,82.00
2018-01-30T17:22:22.155Z,81.70
2018-01-30T17:24:49.658Z,82.10
2018-01-30T17:27:17.913Z,83.00
2018-01-30T17:29:45.370Z,83.00
2018-01-30T17:32:12.868Z,83.30
2018-01-30T17:34:40.367Z,83.30
2018-01-30T17:37:07.884Z,83.60
2018-01-30T17:39:35.346Z,83.70
2018-01-30T17:42:02.855Z,83.70
2018-01-30T17:44:30.316Z,83.80
2018-01-30T17:46:58.553Z,84.50
2018-01-30T17:49:26.053Z,84.50
2018-01-30T17:51:54.650Z,85.00
2018-01-30T17:54:22.857Z,85.00
2018-01-30T17:56:50.370Z,85.00
2018-01-30T17:59:18.593Z,85.30
2018-01-30T18:01:46.218Z,85.30
2018-01-30T18:04:13.687Z,84.90
2018-01-30T18:06:41.157Z,85.10
2018-01-30T18:09:08.697Z,85.10
2018-01-30T18:11:36.180Z,85.60
2018-01-30T18:14:03.658Z,86.10
2018-01-30T18:16:31.177Z,87.10
2018-01-30T18:18:58.663Z,87.70
2018-01-30T18:21:26.162Z,87.00
2018-01-30T18:23:53.674Z,87.20
2018-01-30T18:26:21.176Z,87.40
2018-01-30T18:28:48.663Z,87.50
2018-01-30T18:31:16.164Z,87.20
2018-01-30T18:33:43.651Z,87.20
2018-01-30T18:36:11.125Z,86.90
2018-01-30T18:38:38.593Z,86.60
2018-01-30T18:41:06.093Z,85.90
2018-01-30T18:43:35.758Z,85.20
2018-01-30T18:46:03.248Z,85.10
2018-01-30T18:48:30.718Z,84.80
2018-01-30T18:50:58.983Z,84.30
2018-01-30T18:53:27.246Z,84.10
2018-01-30T18:55:54.748Z,84.00
2018-01-30T18:58:22.236Z,83.70
2018-01-30T19:00:49.871Z,83.90
2018-01-30T19:03:17.462Z,84.10
2018-01-30T19:05:44.938Z,84.50
2018-01-30T19:08:12.479Z,84.50
2018-01-30T19:10:39.971Z,84.90
2018-01-30T19:13:08.205Z,85.80
2018-01-30T19:15:35.696Z,85.60
2018-01-30T19:18:03.971Z,85.20
2018-01-30T19:20:32.240Z,84.70
2018-01-30T19:23:00.494Z,84.70
2018-01-30T19:25:27.975Z,84.70
2018-01-30T19:27:56.232Z,83.70
2018-01-30T19:30:23.720Z,83.70
2018-01-30T19:32:51.217Z,83.90
2018-01-30T19:35:18.684Z,83.20
2018-01-30T19:37:46.407Z,83.20
2018-01-30T19:40:13.956Z,83.20
2018-01-30T19:42:41.455Z,82.80
2018-01-30T19:45:08.926Z,83.20
2018-01-30T19:47:36.383Z,83.20
2018-01-30T19:50:03.870Z,82.50
2018-01-30T19:52:31.367Z,82.10
2018-01-30T19:54:58.853Z,82.40
2018-01-30T19:57:26.339Z,82.20
2018-01-30T19:59:54.601Z,81.20
2018-01-30T20:02:22.847Z,80.80
2018-01-30T20:04:50.356Z,80.60
2018-01-30T20:07:17.822Z,80.70
2018-01-30T20:09:45.291Z,81.10
2018-01-30T20:12:12.763Z,81.10
2018-01-30T20:14:40.249Z,81.10
2018-01-30T20:17:08.492Z,81.20
2018-01-30T20:19:35.966Z,81.10
2018-01-30T20:22:03.441Z,81.20
2018-01-30T20:24:30.924Z,81.30
2018-01-30T20:26:58.426Z,81.20
2018-01-30T20:29:25.949Z,81.20
2018-01-30T20:31:53.441Z,81.40
2018-01-30T20:34:20.911Z,81.40
2018-01-30T20:36:49.179Z,81.60
2018-01-30T20:39:16.664Z,81.60
2018-01-30T20:41:44.891Z,81.70
2018-01-30T20:44:12.377Z,81.70
2018-01-30T20:46:40.625Z,81.60
2018-01-30T20:49:08.089Z,81.50
2018-01-30T20:51:35.576Z,81.70
2018-01-30T20:54:03.819Z,81.60
2018-01-30T20:56:31.323Z,81.70
2018-01-30T20:58:58.815Z,81.70
2018-01-30T21:01:26.344Z,81.80
2018-01-30T21:03:54.090Z,81.50
2018-01-30T21:06:21.552Z,81.30
2018-01-30T21:08:49.046Z,81.30
2018-01-30T21:11:16.493Z,81.30
2018-01-30T21:13:47.876Z,81.20
2018-01-30T21:16:15.351Z,81.20
2018-01-30T21:18:43.001Z,81.00
2018-01-30T21:21:11.236Z,81.50
2018-01-30T21:23:38.741Z,81.30
2018-01-30T21:26:07.067Z,81.10
2018-01-30T21:28:34.535Z,81.10
2018-01-30T21:31:02.017Z,80.80
2018-01-30T21:33:29.576Z,80.70
2018-01-30T21:35:57.817Z,80.20
2018-01-30T21:38:26.167Z,80.20
2018-01-30T21:40:53.688Z,79.70
2018-01-30T21:43:21.919Z,79.30
2018-01-30T21:45:49.411Z,79.30
2018-01-30T21:48:17.683Z,79.00
2018-01-30T21:50:45.955Z,78.80
2018-01-30T21:53:14.196Z,79.40
2018-01-30T21:55:41.658Z,78.80
2018-01-30T21:58:09.180Z,78.80
2018-01-30T22:00:36.635Z,78.60
2018-01-30T22:03:04.110Z,78.50
2018-01-30T22:05:31.604Z,78.50
2018-01-30T22:07:59.079Z,78.70
2018-01-30T22:10:26.542Z,78.40
2018-01-30T22:12:54.047Z,78.70
2018-01-30T22:15:24.595Z,78.70
2018-01-30T22:17:52.069Z,78.50
2018-01-30T22:20:20.330Z,78.90
2018-01-30T22:22:47.922Z,78.90
2018-01-30T22:25:15.421Z,78.70
2018-01-30T22:27:42.878Z,78.90
2018-01-30T22:30:10.373Z,79.00
2018-01-30T22:32:38.604Z,78.70
2018-01-30T22:35:06.076Z,78.70
2018-01-30T22:37:33.566Z,78.60
2018-01-30T22:40:01.814Z,78.30
2018-01-30T22:42:30.053Z,79.00
2018-01-30T22:44:57.519Z,78.30
